Terminal Aerodrome Forecast
Issued by NWS

Home | Current Version | Previous Version | Graphics & Text | Print | Product List | Glossary Off
Versions: 1 2 3 4 5 6 7 8 9 10 11 12 13 14 15 16 17 18 19

000
FTUS43 KDDC 172323 CCA
TAFHYS
TAF COR
KHYS 172323Z 1800/1824 01012KT P6SM SKC
     FM180600 35019G27KT P6SM SCT200
     FM181000 34025G33KT P6SM BKN035
     FM182000 32015KT P6SM SKC=

USA.gov is the U.S. government's official web portal to all federal, state and local government web resources and services.